sensor_id;sensor_type;location;lat;lon;timestamp;P1;durP1;ratioP1;P2;durP2;ratioP2
45642;SDS011;31358;46.008;11.144;2024-02-26T00:00:32;4.47;;;2.53;;
45642;SDS011;31358;46.008;11.144;2024-02-26T00:03:00;5.10;;;2.58;;
45642;SDS011;31358;46.008;11.144;2024-02-26T00:05:25;4.63;;;2.05;;
45642;SDS011;31358;46.008;11.144;2024-02-26T00:07:51;7.00;;;2.08;;
45642;SDS011;31358;46.008;11.144;2024-02-26T00:10:17;5.28;;;2.53;;
45642;SDS011;31358;46.008;11.144;2024-02-26T00:12:43;5.82;;;2.38;;
45642;SDS011;31358;46.008;11.144;2024-02-26T00:15:09;4.55;;;2.35;;
45642;SDS011;31358;46.008;11.144;2024-02-26T00:17:35;4.10;;;2.50;;
45642;SDS011;31358;46.008;11.144;2024-02-26T00:20:02;4.45;;;2.33;;
45642;SDS011;31358;46.008;11.144;2024-02-26T00:22:29;4.82;;;2.53;;
45642;SDS011;31358;46.008;11.144;2024-02-26T00:24:56;4.88;;;2.33;;
45642;SDS011;31358;46.008;11.144;2024-02-26T00:27:21;6.03;;;2.42;;
45642;SDS011;31358;46.008;11.144;2024-02-26T00:29:47;6.07;;;1.98;;
45642;SDS011;31358;46.008;11.144;2024-02-26T00:32:12;4.18;;;1.77;;
45642;SDS011;31358;46.008;11.144;2024-02-26T00:34:38;5.78;;;2.17;;
45642;SDS011;31358;46.008;11.144;2024-02-26T00:37:04;7.45;;;1.60;;
45642;SDS011;31358;46.008;11.144;2024-02-26T00:39:30;4.43;;;1.80;;
45642;SDS011;31358;46.008;11.144;2024-02-26T00:41:55;4.43;;;1.88;;
45642;SDS011;31358;46.008;11.144;2024-02-26T00:44:22;6.25;;;1.83;;
45642;SDS011;31358;46.008;11.144;2024-02-26T00:46:47;5.72;;;1.98;;
45642;SDS011;31358;46.008;11.144;2024-02-26T00:49:13;4.70;;;2.17;;
45642;SDS011;31358;46.008;11.144;2024-02-26T00:51:38;4.47;;;1.95;;
45642;SDS011;31358;46.008;11.144;2024-02-26T00:54:04;4.72;;;2.30;;
45642;SDS011;31358;46.008;11.144;2024-02-26T00:56:30;5.75;;;2.58;;
45642;SDS011;31358;46.008;11.144;2024-02-26T00:58:55;5.72;;;2.63;;
45642;SDS011;31358;46.008;11.144;2024-02-26T01:01:21;5.50;;;2.97;;
45642;SDS011;31358;46.008;11.144;2024-02-26T01:03:47;6.70;;;2.90;;
45642;SDS011;31358;46.008;11.144;2024-02-26T01:06:12;5.28;;;2.50;;
45642;SDS011;31358;46.008;11.144;2024-02-26T01:08:38;5.72;;;3.08;;
45642;SDS011;31358;46.008;11.144;2024-02-26T01:11:04;5.75;;;2.55;;
45642;SDS011;31358;46.008;11.144;2024-02-26T01:13:30;8.40;;;2.78;;
45642;SDS011;31358;46.008;11.144;2024-02-26T01:15:55;5.57;;;2.85;;
45642;SDS011;31358;46.008;11.144;2024-02-26T01:18:21;5.82;;;2.38;;
45642;SDS011;31358;46.008;11.144;2024-02-26T01:20:48;4.70;;;2.40;;
45642;SDS011;31358;46.008;11.144;2024-02-26T01:23:14;3.88;;;2.00;;
45642;SDS011;31358;46.008;11.144;2024-02-26T01:25:39;5.68;;;2.42;;
45642;SDS011;31358;46.008;11.144;2024-02-26T01:28:05;4.47;;;2.30;;
45642;SDS011;31358;46.008;11.144;2024-02-26T01:30:31;6.72;;;4.15;;
45642;SDS011;31358;46.008;11.144;2024-02-26T01:32:57;5.53;;;2.70;;
45642;SDS011;31358;46.008;11.144;2024-02-26T01:35:22;5.55;;;2.83;;
45642;SDS011;31358;46.008;11.144;2024-02-26T01:37:48;4.75;;;2.47;;
45642;SDS011;31358;46.008;11.144;2024-02-26T01:40:14;7.15;;;3.05;;
45642;SDS011;31358;46.008;11.144;2024-02-26T01:42:44;4.20;;;2.20;;
45642;SDS011;31358;46.008;11.144;2024-02-26T01:45:15;4.13;;;2.47;;
45642;SDS011;31358;46.008;11.144;2024-02-26T01:47:46;5.97;;;3.35;;
45642;SDS011;31358;46.008;11.144;2024-02-26T01:50:14;5.88;;;3.13;;
45642;SDS011;31358;46.008;11.144;2024-02-26T01:52:40;6.00;;;3.25;;
45642;SDS011;31358;46.008;11.144;2024-02-26T01:55:06;5.88;;;2.85;;
45642;SDS011;31358;46.008;11.144;2024-02-26T01:57:33;5.38;;;2.67;;
45642;SDS011;31358;46.008;11.144;2024-02-26T01:59:59;5.32;;;2.67;;
45642;SDS011;31358;46.008;11.144;2024-02-26T02:02:25;7.28;;;3.40;;
45642;SDS011;31358;46.008;11.144;2024-02-26T02:04:51;6.88;;;2.80;;
45642;SDS011;31358;46.008;11.144;2024-02-26T02:07:17;6.40;;;3.05;;
45642;SDS011;31358;46.008;11.144;2024-02-26T02:09:44;9.30;;;3.63;;
45642;SDS011;31358;46.008;11.144;2024-02-26T02:12:10;5.00;;;2.60;;
45642;SDS011;31358;46.008;11.144;2024-02-26T02:14:36;7.15;;;3.33;;
45642;SDS011;31358;46.008;11.144;2024-02-26T02:17:02;5.38;;;2.75;;
45642;SDS011;31358;46.008;11.144;2024-02-26T02:19:27;7.25;;;3.17;;
45642;SDS011;31358;46.008;11.144;2024-02-26T02:21:53;6.57;;;3.28;;
45642;SDS011;31358;46.008;11.144;2024-02-26T02:24:19;7.72;;;3.60;;
45642;SDS011;31358;46.008;11.144;2024-02-26T02:26:44;4.43;;;2.40;;
45642;SDS011;31358;46.008;11.144;2024-02-26T02:29:10;4.78;;;2.47;;
45642;SDS011;31358;46.008;11.144;2024-02-26T02:31:37;3.75;;;2.13;;
45642;SDS011;31358;46.008;11.144;2024-02-26T02:34:03;4.55;;;2.42;;
45642;SDS011;31358;46.008;11.144;2024-02-26T02:36:28;6.47;;;2.55;;
45642;SDS011;31358;46.008;11.144;2024-02-26T02:38:54;5.20;;;3.00;;
45642;SDS011;31358;46.008;11.144;2024-02-26T02:41:20;6.55;;;2.85;;
45642;SDS011;31358;46.008;11.144;2024-02-26T02:43:46;4.15;;;2.17;;
45642;SDS011;31358;46.008;11.144;2024-02-26T02:46:12;5.75;;;2.70;;
45642;SDS011;31358;46.008;11.144;2024-02-26T02:48:38;7.53;;;3.30;;
45642;SDS011;31358;46.008;11.144;2024-02-26T02:51:04;5.18;;;3.15;;
45642;SDS011;31358;46.008;11.144;2024-02-26T02:53:30;4.90;;;2.85;;
45642;SDS011;31358;46.008;11.144;2024-02-26T02:55:55;7.32;;;3.28;;
45642;SDS011;31358;46.008;11.144;2024-02-26T02:58:21;5.05;;;2.65;;
45642;SDS011;31358;46.008;11.144;2024-02-26T03:00:47;6.97;;;2.78;;
45642;SDS011;31358;46.008;11.144;2024-02-26T03:03:12;5.40;;;2.75;;
45642;SDS011;31358;46.008;11.144;2024-02-26T03:05:38;6.70;;;2.75;;
45642;SDS011;31358;46.008;11.144;2024-02-26T03:08:04;5.95;;;2.88;;
45642;SDS011;31358;46.008;11.144;2024-02-26T03:10:29;5.63;;;2.95;;
45642;SDS011;31358;46.008;11.144;2024-02-26T03:12:55;4.78;;;2.63;;
45642;SDS011;31358;46.008;11.144;2024-02-26T03:15:21;5.68;;;3.55;;
45642;SDS011;31358;46.008;11.144;2024-02-26T03:17:47;4.45;;;2.80;;
45642;SDS011;31358;46.008;11.144;2024-02-26T03:20:12;5.95;;;3.28;;
45642;SDS011;31358;46.008;11.144;2024-02-26T03:22:38;6.82;;;2.72;;
45642;SDS011;31358;46.008;11.144;2024-02-26T03:25:05;4.38;;;2.28;;
45642;SDS011;31358;46.008;11.144;2024-02-26T03:27:31;4.75;;;2.60;;
45642;SDS011;31358;46.008;11.144;2024-02-26T03:29:57;5.60;;;2.60;;
45642;SDS011;31358;46.008;11.144;2024-02-26T03:32:23;5.65;;;2.50;;
45642;SDS011;31358;46.008;11.144;2024-02-26T03:34:49;6.55;;;2.70;;
45642;SDS011;31358;46.008;11.144;2024-02-26T03:37:14;6.68;;;3.17;;
45642;SDS011;31358;46.008;11.144;2024-02-26T03:39:40;5.70;;;2.88;;
45642;SDS011;31358;46.008;11.144;2024-02-26T03:42:06;8.48;;;2.90;;
45642;SDS011;31358;46.008;11.144;2024-02-26T03:44:31;5.65;;;2.67;;
45642;SDS011;31358;46.008;11.144;2024-02-26T03:46:57;5.78;;;3.30;;
45642;SDS011;31358;46.008;11.144;2024-02-26T03:49:23;7.07;;;3.05;;
45642;SDS011;31358;46.008;11.144;2024-02-26T03:51:48;5.32;;;3.30;;
45642;SDS011;31358;46.008;11.144;2024-02-26T03:54:14;6.18;;;3.20;;
45642;SDS011;31358;46.008;11.144;2024-02-26T03:56:40;4.88;;;2.35;;
45642;SDS011;31358;46.008;11.144;2024-02-26T03:59:05;6.05;;;2.78;;
45642;SDS011;31358;46.008;11.144;2024-02-26T04:01:31;6.32;;;3.05;;
45642;SDS011;31358;46.008;11.144;2024-02-26T04:03:57;5.85;;;3.15;;
45642;SDS011;31358;46.008;11.144;2024-02-26T04:06:23;5.57;;;3.03;;
45642;SDS011;31358;46.008;11.144;2024-02-26T04:08:48;7.20;;;3.78;;
45642;SDS011;31358;46.008;11.144;2024-02-26T04:11:14;10.48;;;3.15;;
45642;SDS011;31358;46.008;11.144;2024-02-26T04:13:44;6.40;;;2.78;;
45642;SDS011;31358;46.008;11.144;2024-02-26T04:16:14;7.28;;;3.80;;
45642;SDS011;31358;46.008;11.144;2024-02-26T04:18:41;5.57;;;3.20;;
45642;SDS011;31358;46.008;11.144;2024-02-26T04:21:07;6.50;;;3.20;;
45642;SDS011;31358;46.008;11.144;2024-02-26T04:23:33;5.28;;;3.05;;
45642;SDS011;31358;46.008;11.144;2024-02-26T04:25:58;5.43;;;2.75;;
45642;SDS011;31358;46.008;11.144;2024-02-26T04:28:24;4.22;;;2.65;;
45642;SDS011;31358;46.008;11.144;2024-02-26T04:30:54;6.15;;;3.53;;
45642;SDS011;31358;46.008;11.144;2024-02-26T04:33:21;6.65;;;2.97;;
45642;SDS011;31358;46.008;11.144;2024-02-26T04:35:46;7.13;;;3.55;;
45642;SDS011;31358;46.008;11.144;2024-02-26T04:38:12;5.35;;;2.80;;
45642;SDS011;31358;46.008;11.144;2024-02-26T04:40:38;6.13;;;3.03;;
45642;SDS011;31358;46.008;11.144;2024-02-26T04:43:03;5.18;;;2.80;;
45642;SDS011;31358;46.008;11.144;2024-02-26T04:45:29;5.97;;;2.70;;
45642;SDS011;31358;46.008;11.144;2024-02-26T04:47:55;5.97;;;2.55;;
45642;SDS011;31358;46.008;11.144;2024-02-26T04:50:20;6.95;;;2.95;;
45642;SDS011;31358;46.008;11.144;2024-02-26T04:52:46;6.22;;;2.90;;
45642;SDS011;31358;46.008;11.144;2024-02-26T04:55:12;6.03;;;3.15;;
45642;SDS011;31358;46.008;11.144;2024-02-26T04:57:37;8.68;;;3.25;;
45642;SDS011;31358;46.008;11.144;2024-02-26T05:00:04;6.43;;;3.00;;
45642;SDS011;31358;46.008;11.144;2024-02-26T05:02:30;5.63;;;2.90;;
45642;SDS011;31358;46.008;11.144;2024-02-26T05:04:58;4.72;;;2.17;;
45642;SDS011;31358;46.008;11.144;2024-02-26T05:07:24;5.30;;;2.42;;
45642;SDS011;31358;46.008;11.144;2024-02-26T05:09:50;4.35;;;2.75;;
45642;SDS011;31358;46.008;11.144;2024-02-26T05:12:15;5.95;;;2.97;;
45642;SDS011;31358;46.008;11.144;2024-02-26T05:14:41;6.75;;;3.80;;
45642;SDS011;31358;46.008;11.144;2024-02-26T05:17:07;5.65;;;2.90;;
45642;SDS011;31358;46.008;11.144;2024-02-26T05:19:33;6.50;;;3.15;;
45642;SDS011;31358;46.008;11.144;2024-02-26T05:21:59;4.80;;;2.45;;
45642;SDS011;31358;46.008;11.144;2024-02-26T05:24:25;4.63;;;2.50;;
45642;SDS011;31358;46.008;11.144;2024-02-26T05:26:50;4.90;;;2.63;;
45642;SDS011;31358;46.008;11.144;2024-02-26T05:29:16;5.70;;;2.20;;
45642;SDS011;31358;46.008;11.144;2024-02-26T05:31:42;7.30;;;2.55;;
45642;SDS011;31358;46.008;11.144;2024-02-26T05:34:08;5.07;;;2.38;;
45642;SDS011;31358;46.008;11.144;2024-02-26T05:36:33;5.55;;;2.70;;
45642;SDS011;31358;46.008;11.144;2024-02-26T05:38:59;4.97;;;2.85;;
45642;SDS011;31358;46.008;11.144;2024-02-26T05:41:26;4.20;;;2.40;;
45642;SDS011;31358;46.008;11.144;2024-02-26T05:43:52;6.03;;;2.80;;
45642;SDS011;31358;46.008;11.144;2024-02-26T05:46:19;4.35;;;2.10;;
45642;SDS011;31358;46.008;11.144;2024-02-26T05:48:50;4.43;;;2.53;;
45642;SDS011;31358;46.008;11.144;2024-02-26T05:51:17;5.07;;;2.40;;
45642;SDS011;31358;46.008;11.144;2024-02-26T05:53:42;5.20;;;2.83;;
45642;SDS011;31358;46.008;11.144;2024-02-26T05:56:08;5.05;;;2.55;;
45642;SDS011;31358;46.008;11.144;2024-02-26T05:58:34;5.70;;;2.50;;
45642;SDS011;31358;46.008;11.144;2024-02-26T06:01:00;6.38;;;3.05;;
45642;SDS011;31358;46.008;11.144;2024-02-26T06:03:26;4.90;;;2.45;;
45642;SDS011;31358;46.008;11.144;2024-02-26T06:05:51;4.65;;;2.63;;
45642;SDS011;31358;46.008;11.144;2024-02-26T06:08:17;4.35;;;2.22;;
45642;SDS011;31358;46.008;11.144;2024-02-26T06:10:43;3.95;;;2.20;;
45642;SDS011;31358;46.008;11.144;2024-02-26T06:13:09;6.35;;;2.42;;
45642;SDS011;31358;46.008;11.144;2024-02-26T06:15:34;4.82;;;2.30;;
45642;SDS011;31358;46.008;11.144;2024-02-26T06:18:00;4.60;;;2.35;;
45642;SDS011;31358;46.008;11.144;2024-02-26T06:20:26;6.15;;;2.28;;
45642;SDS011;31358;46.008;11.144;2024-02-26T06:22:51;7.88;;;2.38;;
45642;SDS011;31358;46.008;11.144;2024-02-26T06:25:17;6.05;;;2.33;;
45642;SDS011;31358;46.008;11.144;2024-02-26T06:27:43;9.57;;;2.90;;
45642;SDS011;31358;46.008;11.144;2024-02-26T06:30:08;5.45;;;2.63;;
45642;SDS011;31358;46.008;11.144;2024-02-26T06:32:36;4.00;;;2.20;;
45642;SDS011;31358;46.008;11.144;2024-02-26T06:35:02;5.03;;;2.47;;
45642;SDS011;31358;46.008;11.144;2024-02-26T06:37:36;5.90;;;2.60;;
45642;SDS011;31358;46.008;11.144;2024-02-26T06:40:02;4.28;;;2.20;;
45642;SDS011;31358;46.008;11.144;2024-02-26T06:42:29;9.63;;;3.00;;
45642;SDS011;31358;46.008;11.144;2024-02-26T06:44:55;5.85;;;2.40;;
45642;SDS011;31358;46.008;11.144;2024-02-26T06:47:21;5.32;;;2.70;;
45642;SDS011;31358;46.008;11.144;2024-02-26T06:49:47;5.07;;;2.67;;
45642;SDS011;31358;46.008;11.144;2024-02-26T06:52:12;5.47;;;4.00;;
45642;SDS011;31358;46.008;11.144;2024-02-26T06:54:38;4.68;;;3.10;;
45642;SDS011;31358;46.008;11.144;2024-02-26T06:57:03;5.00;;;2.85;;
45642;SDS011;31358;46.008;11.144;2024-02-26T06:59:29;5.75;;;3.05;;
45642;SDS011;31358;46.008;11.144;2024-02-26T07:01:55;5.90;;;3.10;;
45642;SDS011;31358;46.008;11.144;2024-02-26T07:04:20;6.82;;;2.40;;
45642;SDS011;31358;46.008;11.144;2024-02-26T07:06:46;4.78;;;2.47;;
45642;SDS011;31358;46.008;11.144;2024-02-26T07:09:12;7.47;;;2.47;;
45642;SDS011;31358;46.008;11.144;2024-02-26T07:11:38;6.18;;;2.67;;
45642;SDS011;31358;46.008;11.144;2024-02-26T07:14:11;4.72;;;2.35;;
45642;SDS011;31358;46.008;11.144;2024-02-26T07:16:37;5.72;;;2.42;;
45642;SDS011;31358;46.008;11.144;2024-02-26T07:19:03;4.20;;;2.40;;
45642;SDS011;31358;46.008;11.144;2024-02-26T07:21:29;4.35;;;2.25;;
45642;SDS011;31358;46.008;11.144;2024-02-26T07:23:55;5.10;;;2.78;;
45642;SDS011;31358;46.008;11.144;2024-02-26T07:26:21;4.90;;;2.63;;
45642;SDS011;31358;46.008;11.144;2024-02-26T07:28:49;8.25;;;2.85;;
45642;SDS011;31358;46.008;11.144;2024-02-26T07:31:15;7.13;;;3.00;;
45642;SDS011;31358;46.008;11.144;2024-02-26T07:33:42;6.10;;;3.05;;
45642;SDS011;31358;46.008;11.144;2024-02-26T07:36:07;6.25;;;3.00;;
45642;SDS011;31358;46.008;11.144;2024-02-26T07:38:33;6.18;;;2.65;;
45642;SDS011;31358;46.008;11.144;2024-02-26T07:40:59;7.47;;;2.55;;
45642;SDS011;31358;46.008;11.144;2024-02-26T07:43:27;5.53;;;2.50;;
45642;SDS011;31358;46.008;11.144;2024-02-26T07:45:53;6.75;;;2.88;;
45642;SDS011;31358;46.008;11.144;2024-02-26T07:48:18;5.78;;;3.08;;
45642;SDS011;31358;46.008;11.144;2024-02-26T07:50:44;7.78;;;2.83;;
45642;SDS011;31358;46.008;11.144;2024-02-26T07:53:10;6.90;;;2.80;;
45642;SDS011;31358;46.008;11.144;2024-02-26T07:55:35;6.57;;;2.95;;
45642;SDS011;31358;46.008;11.144;2024-02-26T07:58:01;5.95;;;2.95;;
45642;SDS011;31358;46.008;11.144;2024-02-26T08:00:27;6.60;;;2.78;;
45642;SDS011;31358;46.008;11.144;2024-02-26T08:02:52;4.78;;;2.90;;
45642;SDS011;31358;46.008;11.144;2024-02-26T08:05:18;5.47;;;3.33;;
45642;SDS011;31358;46.008;11.144;2024-02-26T08:07:44;4.75;;;2.78;;
45642;SDS011;31358;46.008;11.144;2024-02-26T08:10:10;4.97;;;3.03;;
45642;SDS011;31358;46.008;11.144;2024-02-26T08:12:38;6.07;;;3.13;;
45642;SDS011;31358;46.008;11.144;2024-02-26T08:15:04;6.78;;;3.78;;
45642;SDS011;31358;46.008;11.144;2024-02-26T08:17:30;7.75;;;4.75;;
45642;SDS011;31358;46.008;11.144;2024-02-26T08:19:57;8.82;;;4.85;;
45642;SDS011;31358;46.008;11.144;2024-02-26T08:22:24;7.80;;;4.82;;
45642;SDS011;31358;46.008;11.144;2024-02-26T08:24:50;8.15;;;5.40;;
45642;SDS011;31358;46.008;11.144;2024-02-26T08:27:15;9.27;;;5.53;;
45642;SDS011;31358;46.008;11.144;2024-02-26T08:29:41;8.05;;;4.72;;
45642;SDS011;31358;46.008;11.144;2024-02-26T08:32:07;9.13;;;5.55;;
45642;SDS011;31358;46.008;11.144;2024-02-26T08:34:32;7.47;;;4.22;;
45642;SDS011;31358;46.008;11.144;2024-02-26T08:36:58;6.90;;;4.22;;
45642;SDS011;31358;46.008;11.144;2024-02-26T08:39:24;9.13;;;4.85;;
45642;SDS011;31358;46.008;11.144;2024-02-26T08:41:50;8.00;;;4.70;;
45642;SDS011;31358;46.008;11.144;2024-02-26T08:44:16;8.23;;;5.13;;
45642;SDS011;31358;46.008;11.144;2024-02-26T08:46:42;7.55;;;4.47;;
45642;SDS011;31358;46.008;11.144;2024-02-26T08:49:08;8.40;;;4.20;;
45642;SDS011;31358;46.008;11.144;2024-02-26T08:51:33;8.88;;;4.68;;
45642;SDS011;31358;46.008;11.144;2024-02-26T08:53:59;8.88;;;5.47;;
45642;SDS011;31358;46.008;11.144;2024-02-26T08:56:25;7.78;;;4.10;;
45642;SDS011;31358;46.008;11.144;2024-02-26T08:58:50;5.97;;;3.92;;
45642;SDS011;31358;46.008;11.144;2024-02-26T09:01:18;7.38;;;4.50;;
45642;SDS011;31358;46.008;11.144;2024-02-26T09:03:44;7.68;;;4.47;;
45642;SDS011;31358;46.008;11.144;2024-02-26T09:06:10;8.38;;;5.28;;
45642;SDS011;31358;46.008;11.144;2024-02-26T09:08:37;9.43;;;4.90;;
45642;SDS011;31358;46.008;11.144;2024-02-26T09:11:02;7.10;;;4.25;;
45642;SDS011;31358;46.008;11.144;2024-02-26T09:13:29;7.25;;;4.75;;
45642;SDS011;31358;46.008;11.144;2024-02-26T09:15:54;7.55;;;4.70;;
45642;SDS011;31358;46.008;11.144;2024-02-26T09:18:20;9.45;;;4.85;;
45642;SDS011;31358;46.008;11.144;2024-02-26T09:20:46;6.78;;;4.40;;
45642;SDS011;31358;46.008;11.144;2024-02-26T09:23:11;7.45;;;4.32;;
45642;SDS011;31358;46.008;11.144;2024-02-26T09:25:37;7.07;;;4.47;;
45642;SDS011;31358;46.008;11.144;2024-02-26T09:28:03;7.95;;;4.57;;
45642;SDS011;31358;46.008;11.144;2024-02-26T09:30:29;9.93;;;3.95;;
45642;SDS011;31358;46.008;11.144;2024-02-26T09:32:54;6.38;;;3.97;;
45642;SDS011;31358;46.008;11.144;2024-02-26T09:35:20;6.85;;;4.47;;
45642;SDS011;31358;46.008;11.144;2024-02-26T09:37:49;12.27;;;5.10;;
45642;SDS011;31358;46.008;11.144;2024-02-26T09:40:14;9.05;;;4.38;;
45642;SDS011;31358;46.008;11.144;2024-02-26T09:42:44;7.88;;;4.07;;
45642;SDS011;31358;46.008;11.144;2024-02-26T09:45:12;7.72;;;3.80;;
45642;SDS011;31358;46.008;11.144;2024-02-26T09:47:44;8.77;;;4.35;;
45642;SDS011;31358;46.008;11.144;2024-02-26T09:50:10;5.85;;;3.80;;
45642;SDS011;31358;46.008;11.144;2024-02-26T09:52:39;6.60;;;3.72;;
45642;SDS011;31358;46.008;11.144;2024-02-26T09:55:07;6.15;;;3.63;;
45642;SDS011;31358;46.008;11.144;2024-02-26T09:57:37;7.75;;;4.07;;
45642;SDS011;31358;46.008;11.144;2024-02-26T10:00:03;8.32;;;4.07;;
45642;SDS011;31358;46.008;11.144;2024-02-26T10:02:33;7.18;;;4.20;;
45642;SDS011;31358;46.008;11.144;2024-02-26T10:05:02;10.23;;;4.13;;
45642;SDS011;31358;46.008;11.144;2024-02-26T10:07:31;10.13;;;4.20;;
45642;SDS011;31358;46.008;11.144;2024-02-26T10:09:57;6.78;;;3.90;;
45642;SDS011;31358;46.008;11.144;2024-02-26T10:12:23;6.43;;;4.32;;
45642;SDS011;31358;46.008;11.144;2024-02-26T10:14:51;7.53;;;3.85;;
45642;SDS011;31358;46.008;11.144;2024-02-26T10:17:17;7.97;;;4.50;;
45642;SDS011;31358;46.008;11.144;2024-02-26T10:19:45;8.40;;;4.28;;
45642;SDS011;31358;46.008;11.144;2024-02-26T10:22:10;8.02;;;4.22;;
45642;SDS011;31358;46.008;11.144;2024-02-26T10:24:36;6.20;;;3.90;;
45642;SDS011;31358;46.008;11.144;2024-02-26T10:27:02;6.47;;;4.25;;
45642;SDS011;31358;46.008;11.144;2024-02-26T10:29:28;8.05;;;5.07;;
45642;SDS011;31358;46.008;11.144;2024-02-26T10:31:54;6.93;;;4.40;;
45642;SDS011;31358;46.008;11.144;2024-02-26T10:34:20;9.52;;;4.80;;
45642;SDS011;31358;46.008;11.144;2024-02-26T10:36:46;10.23;;;4.30;;
45642;SDS011;31358;46.008;11.144;2024-02-26T10:39:12;8.27;;;4.00;;
45642;SDS011;31358;46.008;11.144;2024-02-26T10:41:39;7.28;;;4.30;;
45642;SDS011;31358;46.008;11.144;2024-02-26T10:44:08;7.20;;;4.13;;
45642;SDS011;31358;46.008;11.144;2024-02-26T10:46:35;7.50;;;4.72;;
45642;SDS011;31358;46.008;11.144;2024-02-26T10:49:02;8.55;;;3.90;;
45642;SDS011;31358;46.008;11.144;2024-02-26T10:51:28;8.18;;;4.32;;
45642;SDS011;31358;46.008;11.144;2024-02-26T10:53:56;7.85;;;4.35;;
45642;SDS011;31358;46.008;11.144;2024-02-26T10:56:27;6.55;;;4.75;;
45642;SDS011;31358;46.008;11.144;2024-02-26T10:58:57;10.82;;;5.07;;
45642;SDS011;31358;46.008;11.144;2024-02-26T11:01:24;7.57;;;5.63;;
45642;SDS011;31358;46.008;11.144;2024-02-26T11:03:52;7.50;;;5.38;;
45642;SDS011;31358;46.008;11.144;2024-02-26T11:06:18;12.27;;;6.45;;
45642;SDS011;31358;46.008;11.144;2024-02-26T11:08:49;8.73;;;5.07;;
45642;SDS011;31358;46.008;11.144;2024-02-26T11:11:18;9.70;;;5.05;;
45642;SDS011;31358;46.008;11.144;2024-02-26T11:13:46;6.05;;;4.03;;
45642;SDS011;31358;46.008;11.144;2024-02-26T11:16:20;7.53;;;4.72;;
45642;SDS011;31358;46.008;11.144;2024-02-26T11:18:47;7.70;;;4.13;;
45642;SDS011;31358;46.008;11.144;2024-02-26T11:21:16;6.78;;;4.38;;
45642;SDS011;31358;46.008;11.144;2024-02-26T11:23:52;7.30;;;4.05;;
45642;SDS011;31358;46.008;11.144;2024-02-26T11:26:18;8.15;;;4.13;;
45642;SDS011;31358;46.008;11.144;2024-02-26T11:28:46;6.10;;;3.72;;
45642;SDS011;31358;46.008;11.144;2024-02-26T11:31:13;7.22;;;4.20;;
45642;SDS011;31358;46.008;11.144;2024-02-26T11:33:39;7.22;;;4.57;;
45642;SDS011;31358;46.008;11.144;2024-02-26T11:36:09;7.45;;;4.82;;
45642;SDS011;31358;46.008;11.144;2024-02-26T11:38:36;6.65;;;3.95;;
45642;SDS011;31358;46.008;11.144;2024-02-26T11:41:03;7.15;;;4.30;;
45642;SDS011;31358;46.008;11.144;2024-02-26T11:46:24;5.90;;;4.25;;
45642;SDS011;31358;46.008;11.144;2024-02-26T11:49:01;7.38;;;4.25;;
45642;SDS011;31358;46.008;11.144;2024-02-26T11:51:32;6.72;;;4.18;;
45642;SDS011;31358;46.008;11.144;2024-02-26T11:53:59;7.13;;;4.10;;
45642;SDS011;31358;46.008;11.144;2024-02-26T11:56:25;8.02;;;4.03;;
45642;SDS011;31358;46.008;11.144;2024-02-26T11:59:01;6.47;;;4.10;;
45642;SDS011;31358;46.008;11.144;2024-02-26T12:01:44;7.50;;;4.25;;
45642;SDS011;31358;46.008;11.144;2024-02-26T12:04:25;9.70;;;4.90;;
45642;SDS011;31358;46.008;11.144;2024-02-26T12:06:57;6.88;;;4.18;;
45642;SDS011;31358;46.008;11.144;2024-02-26T12:11:59;7.63;;;4.38;;
45642;SDS011;31358;46.008;11.144;2024-02-26T12:14:27;7.40;;;4.78;;
45642;SDS011;31358;46.008;11.144;2024-02-26T12:16:53;6.75;;;4.40;;
45642;SDS011;31358;46.008;11.144;2024-02-26T12:19:21;8.65;;;5.03;;
45642;SDS011;31358;46.008;11.144;2024-02-26T12:21:50;10.00;;;4.80;;
45642;SDS011;31358;46.008;11.144;2024-02-26T12:24:18;6.25;;;4.40;;
45642;SDS011;31358;46.008;11.144;2024-02-26T12:26:45;8.60;;;5.25;;
45642;SDS011;31358;46.008;11.144;2024-02-26T12:29:11;9.88;;;5.30;;
45642;SDS011;31358;46.008;11.144;2024-02-26T12:31:37;7.07;;;4.47;;
45642;SDS011;31358;46.008;11.144;2024-02-26T12:34:04;7.97;;;4.72;;
45642;SDS011;31358;46.008;11.144;2024-02-26T12:36:31;7.43;;;4.82;;
45642;SDS011;31358;46.008;11.144;2024-02-26T12:38:59;9.75;;;5.65;;
45642;SDS011;31358;46.008;11.144;2024-02-26T12:41:25;8.50;;;5.05;;
45642;SDS011;31358;46.008;11.144;2024-02-26T12:43:52;8.88;;;5.82;;
45642;SDS011;31358;46.008;11.144;2024-02-26T12:46:18;8.20;;;5.47;;
45642;SDS011;31358;46.008;11.144;2024-02-26T12:48:46;7.45;;;4.88;;
45642;SDS011;31358;46.008;11.144;2024-02-26T12:51:12;7.95;;;4.72;;
45642;SDS011;31358;46.008;11.144;2024-02-26T12:53:39;8.57;;;4.00;;
45642;SDS011;31358;46.008;11.144;2024-02-26T12:56:06;6.75;;;3.88;;
45642;SDS011;31358;46.008;11.144;2024-02-26T12:58:33;5.68;;;3.58;;
45642;SDS011;31358;46.008;11.144;2024-02-26T13:01:00;6.72;;;4.10;;
45642;SDS011;31358;46.008;11.144;2024-02-26T13:03:27;6.43;;;3.42;;
45642;SDS011;31358;46.008;11.144;2024-02-26T13:05:53;7.93;;;3.47;;
45642;SDS011;31358;46.008;11.144;2024-02-26T13:08:19;6.88;;;3.55;;
45642;SDS011;31358;46.008;11.144;2024-02-26T13:10:46;5.95;;;3.13;;
45642;SDS011;31358;46.008;11.144;2024-02-26T13:13:16;5.28;;;3.55;;
45642;SDS011;31358;46.008;11.144;2024-02-26T13:15:42;6.45;;;3.80;;
45642;SDS011;31358;46.008;11.144;2024-02-26T13:18:10;8.02;;;5.18;;
45642;SDS011;31358;46.008;11.144;2024-02-26T13:20:36;6.10;;;3.72;;
45642;SDS011;31358;46.008;11.144;2024-02-26T13:23:03;6.95;;;4.30;;
45642;SDS011;31358;46.008;11.144;2024-02-26T13:25:30;5.18;;;3.15;;
45642;SDS011;31358;46.008;11.144;2024-02-26T13:28:15;6.93;;;3.17;;
45642;SDS011;31358;46.008;11.144;2024-02-26T13:30:52;5.47;;;2.92;;
45642;SDS011;31358;46.008;11.144;2024-02-26T13:33:22;7.18;;;4.35;;
45642;SDS011;31358;46.008;11.144;2024-02-26T13:35:53;7.50;;;5.30;;
45642;SDS011;31358;46.008;11.144;2024-02-26T13:38:19;6.82;;;3.70;;
45642;SDS011;31358;46.008;11.144;2024-02-26T13:40:45;7.70;;;4.30;;
45642;SDS011;31358;46.008;11.144;2024-02-26T13:43:11;7.28;;;4.70;;
45642;SDS011;31358;46.008;11.144;2024-02-26T13:45:37;5.93;;;3.70;;
45642;SDS011;31358;46.008;11.144;2024-02-26T13:48:04;6.30;;;3.70;;
45642;SDS011;31358;46.008;11.144;2024-02-26T13:50:31;8.57;;;3.85;;
45642;SDS011;31358;46.008;11.144;2024-02-26T13:52:57;5.65;;;3.05;;
45642;SDS011;31358;46.008;11.144;2024-02-26T13:55:25;6.28;;;3.13;;
45642;SDS011;31358;46.008;11.144;2024-02-26T13:57:53;8.68;;;3.17;;
45642;SDS011;31358;46.008;11.144;2024-02-26T14:00:19;6.78;;;2.95;;
45642;SDS011;31358;46.008;11.144;2024-02-26T14:02:45;4.95;;;3.15;;
45642;SDS011;31358;46.008;11.144;2024-02-26T14:05:11;5.03;;;2.70;;
45642;SDS011;31358;46.008;11.144;2024-02-26T14:07:37;5.32;;;3.08;;
45642;SDS011;31358;46.008;11.144;2024-02-26T14:10:03;5.18;;;2.80;;
45642;SDS011;31358;46.008;11.144;2024-02-26T14:12:29;5.22;;;1.90;;
45642;SDS011;31358;46.008;11.144;2024-02-26T14:14:54;3.80;;;2.08;;
45642;SDS011;31358;46.008;11.144;2024-02-26T14:17:21;6.15;;;1.98;;
45642;SDS011;31358;46.008;11.144;2024-02-26T14:19:47;5.70;;;2.28;;
45642;SDS011;31358;46.008;11.144;2024-02-26T14:22:13;4.82;;;2.85;;
45642;SDS011;31358;46.008;11.144;2024-02-26T14:24:42;2.72;;;1.52;;
45642;SDS011;31358;46.008;11.144;2024-02-26T14:27:09;2.75;;;1.48;;
45642;SDS011;31358;46.008;11.144;2024-02-26T14:29:37;3.97;;;1.98;;
45642;SDS011;31358;46.008;11.144;2024-02-26T14:32:05;3.58;;;1.70;;
45642;SDS011;31358;46.008;11.144;2024-02-26T14:34:30;4.28;;;1.58;;